createdAt,value
2018-07-23T00:00:14.922Z,6.60
2018-07-23T00:01:14.899Z,6.60
2018-07-23T00:02:14.863Z,6.00
2018-07-23T00:03:14.831Z,6.80
2018-07-23T00:04:14.799Z,6.50
2018-07-23T00:05:14.772Z,7.00
2018-07-23T00:06:14.741Z,7.10
2018-07-23T00:07:14.709Z,6.70
2018-07-23T00:08:14.679Z,7.00
2018-07-23T00:09:14.645Z,6.70
2018-07-23T00:10:14.614Z,6.70
2018-07-23T00:11:14.583Z,6.80
2018-07-23T00:12:14.549Z,6.50
2018-07-23T00:13:14.526Z,6.70
2018-07-23T00:14:14.497Z,6.70
2018-07-23T00:15:14.460Z,6.70
2018-07-23T00:16:14.430Z,6.90
2018-07-23T00:17:14.393Z,7.20
2018-07-23T00:18:14.363Z,6.80
2018-07-23T00:19:14.335Z,6.80
2018-07-23T00:20:14.309Z,7.00
2018-07-23T00:21:14.277Z,6.70
2018-07-23T00:22:14.239Z,6.80
2018-07-23T00:23:14.208Z,6.60
2018-07-23T00:24:14.179Z,6.70
2018-07-23T00:25:14.150Z,6.60
2018-07-23T00:26:14.116Z,6.80
2018-07-23T00:27:14.085Z,6.50
2018-07-23T00:28:14.058Z,6.50
2018-07-23T00:29:14.021Z,6.90
2018-07-23T00:30:13.989Z,6.70
2018-07-23T00:31:13.958Z,6.80
2018-07-23T00:32:13.925Z,6.90
2018-07-23T00:33:13.899Z,6.90
2018-07-23T00:34:13.865Z,6.80
2018-07-23T00:35:13.834Z,7.40
2018-07-23T00:36:13.802Z,6.90
2018-07-23T00:37:13.776Z,7.00
2018-07-23T00:38:13.741Z,7.30
2018-07-23T00:39:13.709Z,6.70
2018-07-23T00:40:13.682Z,6.70
2018-07-23T00:41:13.643Z,7.00
2018-07-23T00:42:13.613Z,6.90
2018-07-23T00:43:13.583Z,6.90
2018-07-23T00:44:13.549Z,7.20
2018-07-23T00:45:13.524Z,7.20
2018-07-23T00:46:13.493Z,7.70
2018-07-23T00:47:13.461Z,7.10
2018-07-23T00:48:13.436Z,7.90
2018-07-23T00:49:13.393Z,6.30
2018-07-23T00:50:13.364Z,7.00
2018-07-23T00:51:13.333Z,7.00
2018-07-23T00:52:13.303Z,6.70
2018-07-23T00:53:13.268Z,6.70
2018-07-23T00:54:13.236Z,7.00
2018-07-23T00:55:13.205Z,6.30
2018-07-23T00:56:13.173Z,6.90
2018-07-23T00:57:13.148Z,7.10
2018-07-23T00:58:13.116Z,7.30
2018-07-23T00:59:13.082Z,7.00
2018-07-23T01:00:13.052Z,6.90
2018-07-23T01:01:13.017Z,7.10
2018-07-23T01:02:12.985Z,6.70
2018-07-23T01:03:12.954Z,6.50
2018-07-23T01:04:12.922Z,6.80
2018-07-23T01:05:12.894Z,6.50
2018-07-23T01:06:12.865Z,7.70
2018-07-23T01:07:12.828Z,7.20
2018-07-23T01:08:12.795Z,7.20
2018-07-23T01:09:12.768Z,6.90
2018-07-23T01:10:12.736Z,7.40
2018-07-23T01:11:12.705Z,7.10
2018-07-23T01:12:12.675Z,7.10
2018-07-23T01:13:12.640Z,7.10
2018-07-23T01:14:12.607Z,7.10
2018-07-23T01:15:12.575Z,7.40
2018-07-23T01:16:12.543Z,7.20
2018-07-23T01:17:12.516Z,7.50
2018-07-23T01:18:12.482Z,7.20
2018-07-23T01:19:12.450Z,7.30
2018-07-23T01:20:12.421Z,7.30
2018-07-23T01:21:12.387Z,7.10
2018-07-23T01:22:12.354Z,7.40
2018-07-23T01:23:12.324Z,7.60
2018-07-23T01:24:12.299Z,7.20
2018-07-23T01:25:12.256Z,7.00
2018-07-23T01:26:12.226Z,7.10
2018-07-23T01:27:12.196Z,7.50
2018-07-23T01:28:12.162Z,7.90
2018-07-23T01:29:12.135Z,7.90
2018-07-23T01:30:12.105Z,7.60
2018-07-23T01:31:12.074Z,7.60
2018-07-23T01:32:12.041Z,7.90
2018-07-23T01:33:12.003Z,7.40
2018-07-23T01:34:11.973Z,7.50
2018-07-23T01:35:11.942Z,7.40
2018-07-23T01:36:11.908Z,7.30
2018-07-23T01:37:11.883Z,6.70
2018-07-23T01:38:11.849Z,7.40
2018-07-23T01:39:11.819Z,7.20
2018-07-23T01:40:11.781Z,7.20
2018-07-23T01:41:11.755Z,7.30
2018-07-23T01:42:11.722Z,7.30
2018-07-23T01:43:11.690Z,7.00
2018-07-23T01:44:11.659Z,6.80
2018-07-23T01:45:11.621Z,7.70
2018-07-23T01:46:11.593Z,8.00
2018-07-23T01:47:11.561Z,7.50
2018-07-23T01:48:11.525Z,7.60
2018-07-23T01:49:11.502Z,7.50
2018-07-23T01:50:11.467Z,7.80
2018-07-23T01:51:11.435Z,7.30
2018-07-23T01:52:11.408Z,7.30
2018-07-23T01:53:11.369Z,7.80
2018-07-23T01:54:11.342Z,8.00
2018-07-23T01:55:11.309Z,7.50
2018-07-23T01:56:11.278Z,7.70
2018-07-23T01:57:11.242Z,7.40
2018-07-23T01:58:11.210Z,7.70
2018-07-23T01:59:11.179Z,7.40
2018-07-23T02:00:11.147Z,7.30
2018-07-23T02:01:11.119Z,7.40
2018-07-23T02:02:11.087Z,7.70
2018-07-23T02:03:11.054Z,7.60
2018-07-23T02:04:11.027Z,8.10
2018-07-23T02:05:10.987Z,7.20
2018-07-23T02:06:10.955Z,8.20
2018-07-23T02:07:10.932Z,7.90
2018-07-23T02:08:10.894Z,8.90
2018-07-23T02:09:10.866Z,8.30
2018-07-23T02:10:10.833Z,8.60
2018-07-23T02:11:10.796Z,8.40
2018-07-23T02:12:10.764Z,8.90
2018-07-23T02:13:10.736Z,8.60
2018-07-23T02:14:10.703Z,8.60
2018-07-23T02:15:10.673Z,8.50
2018-07-23T02:16:10.641Z,9.30
2018-07-23T02:17:10.603Z,9.50
2018-07-23T02:18:10.578Z,9.00
2018-07-23T02:19:10.540Z,8.80
2018-07-23T02:20:10.510Z,8.50
2018-07-23T02:21:10.480Z,9.00
2018-07-23T02:22:10.447Z,9.10
2018-07-23T02:23:10.417Z,9.10
2018-07-23T02:24:10.386Z,9.40
2018-07-23T02:25:10.347Z,9.00
2018-07-23T02:26:10.317Z,9.50
2018-07-23T02:27:10.289Z,9.90
2018-07-23T02:28:10.258Z,10.20
2018-07-23T02:29:10.219Z,9.40
2018-07-23T02:30:10.189Z,10.10
2018-07-23T02:31:10.157Z,9.60
2018-07-23T02:32:10.128Z,9.80
2018-07-23T02:33:10.099Z,9.20
2018-07-23T02:34:10.063Z,8.80
2018-07-23T02:35:10.030Z,9.20
2018-07-23T02:36:10.000Z,9.50
2018-07-23T02:37:09.963Z,9.90
2018-07-23T02:38:09.933Z,8.70
2018-07-23T02:39:09.908Z,9.50
2018-07-23T02:40:09.867Z,9.70
2018-07-23T02:41:09.840Z,9.90
2018-07-23T02:42:09.807Z,9.70
2018-07-23T02:43:09.774Z,9.20
2018-07-23T02:44:09.738Z,9.40
2018-07-23T02:45:09.712Z,9.00
2018-07-23T02:46:09.677Z,9.40
2018-07-23T02:47:09.646Z,9.80
2018-07-23T02:48:09.616Z,9.10
2018-07-23T02:49:09.576Z,9.40
2018-07-23T02:50:09.548Z,8.60
2018-07-23T02:51:09.516Z,9.70
2018-07-23T02:52:09.481Z,9.50
2018-07-23T02:53:09.453Z,9.60
2018-07-23T02:54:09.422Z,9.90
2018-07-23T02:55:09.389Z,10.20
2018-07-23T02:56:09.361Z,10.30
2018-07-23T02:57:09.319Z,9.70
2018-07-23T02:58:09.290Z,10.50
2018-07-23T02:59:09.261Z,10.40
2018-07-23T03:00:09.234Z,10.30
2018-07-23T03:01:09.190Z,10.40
2018-07-23T03:02:09.160Z,10.30
2018-07-23T03:03:09.129Z,9.80
2018-07-23T03:04:09.095Z,9.80
2018-07-23T03:05:09.067Z,9.00
2018-07-23T03:06:09.036Z,9.10
2018-07-23T03:07:09.005Z,9.10
2018-07-23T03:08:08.973Z,9.70
2018-07-23T03:09:08.934Z,9.70
2018-07-23T03:10:08.902Z,9.50
2018-07-23T03:11:08.871Z,9.20
2018-07-23T03:12:08.836Z,9.30
2018-07-23T03:13:08.812Z,9.80
2018-07-23T03:14:08.776Z,9.50
2018-07-23T03:15:08.744Z,9.90
2018-07-23T03:16:08.709Z,9.40
2018-07-23T03:17:08.681Z,10.10
2018-07-23T03:18:08.648Z,9.90
2018-07-23T03:19:08.616Z,9.50
2018-07-23T03:20:08.584Z,9.70
2018-07-23T03:21:08.546Z,10.00
2018-07-23T03:22:08.515Z,9.80
2018-07-23T03:23:08.484Z,9.80
2018-07-23T03:24:08.452Z,9.20
2018-07-23T03:25:08.421Z,8.90
2018-07-23T03:26:08.388Z,9.40
2018-07-23T03:27:08.355Z,9.50
2018-07-23T03:28:08.327Z,9.70
2018-07-23T03:29:08.286Z,9.40
2018-07-23T03:30:08.258Z,9.40
2018-07-23T03:31:08.226Z,10.00
2018-07-23T03:32:08.197Z,10.90
2018-07-23T03:33:08.159Z,9.70
2018-07-23T03:34:08.130Z,10.30
2018-07-23T03:35:08.095Z,9.90
2018-07-23T03:36:08.061Z,10.60
2018-07-23T03:37:08.032Z,10.30
2018-07-23T03:38:08.000Z,10.00
2018-07-23T03:39:07.964Z,10.80
2018-07-23T03:40:07.931Z,10.10
2018-07-23T03:41:07.904Z,10.20
2018-07-23T03:42:07.869Z,10.60
2018-07-23T03:43:07.836Z,10.70
2018-07-23T03:44:07.803Z,10.40
2018-07-23T03:45:07.768Z,10.10
2018-07-23T03:46:07.736Z,10.70
2018-07-23T03:47:07.706Z,10.70
2018-07-23T03:48:07.675Z,11.30
2018-07-23T03:49:07.642Z,10.70
2018-07-23T03:50:07.606Z,10.80
2018-07-23T03:51:07.574Z,11.30
2018-07-23T04:08:28.849Z,10.90
2018-07-23T04:09:28.783Z,12.00
2018-07-23T04:10:28.746Z,12.60
2018-07-23T04:11:28.705Z,13.30
2018-07-23T04:12:28.668Z,12.90
2018-07-23T04:13:28.633Z,11.80
2018-07-23T04:14:28.599Z,12.20
2018-07-23T04:15:28.563Z,12.20
2018-07-23T04:16:28.526Z,11.70
2018-07-23T04:17:28.547Z,12.30
2018-07-23T04:18:28.452Z,11.60
2018-07-23T04:19:28.418Z,11.60
2018-07-23T04:20:28.387Z,11.50
2018-07-23T04:21:28.354Z,10.60
2018-07-23T04:22:28.322Z,11.60
2018-07-23T04:23:28.292Z,11.50
2018-07-23T04:24:28.267Z,10.90
2018-07-23T04:25:28.216Z,10.90
2018-07-23T04:26:28.180Z,10.70
2018-07-23T04:27:28.154Z,10.70
2018-07-23T04:28:28.119Z,11.40
2018-07-23T04:29:28.084Z,11.50
2018-07-23T04:30:28.048Z,11.10
2018-07-23T04:31:28.014Z,11.20
2018-07-23T04:32:27.983Z,10.70
2018-07-23T04:33:27.951Z,10.60
2018-07-23T04:34:27.918Z,10.90
2018-07-23T04:35:27.888Z,10.90
2018-07-23T04:36:27.853Z,11.10
2018-07-23T04:37:27.819Z,10.70
2018-07-23T04:38:27.783Z,10.80
2018-07-23T04:39:27.750Z,11.10
2018-07-23T04:40:27.722Z,11.20
2018-07-23T04:41:27.688Z,11.10
2018-07-23T04:42:27.657Z,10.80
2018-07-23T04:43:27.619Z,11.20
2018-07-23T04:44:27.588Z,11.30
2018-07-23T04:45:27.556Z,11.00
2018-07-23T04:46:27.527Z,11.50
2018-07-23T04:47:27.493Z,10.80
2018-07-23T04:48:27.462Z,11.10
2018-07-23T04:49:27.424Z,11.00
2018-07-23T04:50:27.393Z,11.50
2018-07-23T04:51:27.361Z,11.10
2018-07-23T04:52:27.327Z,10.80
2018-07-23T04:53:27.297Z,10.50
2018-07-23T04:54:27.267Z,11.20
2018-07-23T04:55:27.235Z,10.50
2018-07-23T04:56:27.200Z,10.70
2018-07-23T04:57:27.166Z,10.90
2018-07-23T04:58:27.133Z,11.40
2018-07-23T04:59:27.105Z,10.60
2018-07-23T05:00:27.072Z,10.90
2018-07-23T05:01:27.036Z,10.30
2018-07-23T05:02:27.002Z,10.80
2018-07-23T05:03:26.971Z,11.30
2018-07-23T05:04:26.942Z,11.00
2018-07-23T05:05:26.908Z,10.30
2018-07-23T05:06:26.880Z,10.80
2018-07-23T05:07:26.846Z,10.70
2018-07-23T05:08:26.812Z,11.00
2018-07-23T05:09:26.779Z,10.30
2018-07-23T05:10:26.744Z,10.80
2018-07-23T05:11:26.715Z,10.30
2018-07-23T05:12:26.684Z,10.80
2018-07-23T05:13:26.651Z,10.70
2018-07-23T05:14:26.621Z,10.50
2018-07-23T05:15:26.584Z,10.40
2018-07-23T05:16:26.554Z,11.00
2018-07-23T05:17:26.525Z,10.90
2018-07-23T05:18:26.494Z,10.70
2018-07-23T05:19:26.463Z,11.20
2018-07-23T05:20:26.427Z,11.00
2018-07-23T05:21:26.392Z,10.80
2018-07-23T05:22:26.359Z,10.30
2018-07-23T05:23:26.328Z,11.20
2018-07-23T05:24:26.347Z,11.10
2018-07-23T05:25:26.265Z,10.50
2018-07-23T05:26:26.237Z,10.60
2018-07-23T05:27:26.205Z,11.20
2018-07-23T05:28:26.171Z,11.00
2018-07-23T05:29:26.135Z,10.70
2018-07-23T05:30:26.101Z,10.70
2018-07-23T05:31:26.075Z,11.00
2018-07-23T05:32:26.042Z,11.30
2018-07-23T05:33:26.008Z,10.60
2018-07-23T05:34:25.973Z,10.60
2018-07-23T05:35:25.940Z,11.20
2018-07-23T05:36:25.912Z,11.00
2018-07-23T05:37:25.883Z,11.10
2018-07-23T05:38:25.866Z,10.00
2018-07-23T05:39:25.819Z,10.80
2018-07-23T05:40:25.784Z,10.90
2018-07-23T05:41:25.750Z,10.80
2018-07-23T05:42:25.717Z,11.00
2018-07-23T05:43:25.685Z,10.70
2018-07-23T05:44:25.655Z,10.80
2018-07-23T05:45:25.625Z,10.80
2018-07-23T05:46:25.595Z,11.20
2018-07-23T05:47:25.556Z,10.60
2018-07-23T05:48:25.527Z,10.90
2018-07-23T05:49:25.501Z,11.50
2018-07-23T05:50:25.468Z,11.40
2018-07-23T05:51:25.439Z,10.10
2018-07-23T05:52:25.404Z,10.10
2018-07-23T05:53:25.369Z,10.50
2018-07-23T05:54:25.335Z,10.10
2018-07-23T05:55:25.303Z,11.20
2018-07-23T05:56:25.276Z,10.60
2018-07-23T05:57:25.244Z,11.10
2018-07-23T05:58:25.215Z,10.20
2018-07-23T05:59:25.183Z,10.20
2018-07-23T06:00:25.151Z,10.20
2018-07-23T06:01:25.121Z,10.30
2018-07-23T06:02:25.084Z,10.70
2018-07-23T06:03:25.061Z,11.10
2018-07-23T06:04:25.026Z,10.30
2018-07-23T06:05:24.991Z,10.30
2018-07-23T06:06:25.021Z,10.50
2018-07-23T06:07:24.927Z,9.60
2018-07-23T06:08:24.898Z,10.40
2018-07-23T06:09:24.869Z,9.80
2018-07-23T06:10:24.841Z,10.00
2018-07-23T06:11:24.809Z,10.10
2018-07-23T06:12:24.776Z,9.80
2018-07-23T06:13:24.756Z,10.10
2018-07-23T06:14:24.710Z,9.90
2018-07-23T06:15:24.682Z,10.90
2018-07-23T06:16:24.658Z,10.90
2018-07-23T06:17:24.657Z,10.80
2018-07-23T06:18:24.593Z,10.70
2018-07-23T06:19:24.556Z,11.20
2018-07-23T06:20:24.529Z,11.50
2018-07-23T06:21:24.502Z,11.20
2018-07-23T06:22:24.479Z,11.10
2018-07-23T06:23:24.439Z,11.00
2018-07-23T06:24:24.410Z,11.00
2018-07-23T06:25:24.375Z,11.30
2018-07-23T06:26:24.344Z,10.30
2018-07-23T06:27:24.316Z,10.40
2018-07-23T06:28:24.288Z,10.70
2018-07-23T06:29:24.250Z,10.80
2018-07-23T06:30:24.284Z,10.90
2018-07-23T06:31:24.191Z,10.80
2018-07-23T06:32:24.160Z,10.70
2018-07-23T06:33:24.135Z,10.80
2018-07-23T06:34:24.103Z,10.90
2018-07-23T06:35:24.073Z,10.40
2018-07-23T06:36:24.038Z,10.20
2018-07-23T06:37:24.013Z,10.90
2018-07-23T06:38:23.979Z,10.10
2018-07-23T06:39:23.949Z,9.60
2018-07-23T06:40:23.925Z,9.00
2018-07-23T06:41:23.889Z,9.70
2018-07-23T06:42:23.855Z,9.90
2018-07-23T06:43:23.895Z,9.10
2018-07-23T06:44:23.794Z,10.30
2018-07-23T06:45:23.772Z,10.00
2018-07-23T06:46:23.738Z,9.90
2018-07-23T06:47:23.707Z,9.70
2018-07-23T06:48:23.678Z,10.10
2018-07-23T06:49:23.640Z,9.50
2018-07-23T06:50:23.614Z,8.90
2018-07-23T06:51:23.584Z,9.80
2018-07-23T06:52:23.557Z,9.80
2018-07-23T06:53:23.522Z,9.50
2018-07-23T06:54:23.491Z,9.90
2018-07-23T06:55:23.460Z,9.70
2018-07-23T06:56:23.428Z,9.40
2018-07-23T06:57:23.465Z,10.00
2018-07-23T06:58:23.371Z,9.50
2018-07-23T06:59:23.341Z,8.90
2018-07-23T07:00:23.313Z,10.00
2018-07-23T07:01:23.276Z,9.30
2018-07-23T07:02:23.250Z,9.00
2018-07-23T07:03:23.242Z,9.30
2018-07-23T07:04:23.187Z,10.10
2018-07-23T07:05:23.162Z,9.70
2018-07-23T07:06:23.137Z,9.40
2018-07-23T07:07:23.100Z,9.20
2018-07-23T07:08:23.065Z,9.00
2018-07-23T07:09:23.039Z,9.30
2018-07-23T07:10:23.007Z,9.40
2018-07-23T07:11:22.977Z,9.40
2018-07-23T07:12:22.952Z,8.40
2018-07-23T07:13:22.928Z,9.10
2018-07-23T07:14:22.886Z,8.70
2018-07-23T07:15:22.855Z,9.10
2018-07-23T07:16:22.822Z,9.20
2018-07-23T07:17:22.798Z,9.40
2018-07-23T07:18:22.767Z,9.80
2018-07-23T07:19:22.738Z,8.30
2018-07-23T07:20:22.708Z,9.00
2018-07-23T07:21:22.670Z,8.70
2018-07-23T07:22:22.645Z,9.50
2018-07-23T07:23:22.616Z,9.10
2018-07-23T07:24:22.588Z,8.90
2018-07-23T07:25:22.609Z,8.70
2018-07-23T07:26:22.522Z,9.70
2018-07-23T07:27:22.492Z,8.60
2018-07-23T07:28:22.462Z,8.30
2018-07-23T07:29:22.437Z,8.90
2018-07-23T07:30:22.405Z,8.80
2018-07-23T07:31:22.376Z,8.00
2018-07-23T07:32:22.347Z,8.10
2018-07-23T07:33:22.311Z,8.40
2018-07-23T07:34:22.284Z,8.30
2018-07-23T07:35:22.254Z,8.40
2018-07-23T07:36:22.222Z,8.10
2018-07-23T07:37:22.197Z,8.30
2018-07-23T07:38:22.233Z,8.70
2018-07-23T07:39:22.134Z,8.30
2018-07-23T07:40:22.102Z,8.50
2018-07-23T07:41:22.078Z,8.70
2018-07-23T07:42:22.046Z,8.70
2018-07-23T07:43:22.016Z,8.50
2018-07-23T07:44:21.988Z,8.40
2018-07-23T07:45:21.953Z,8.50
2018-07-23T07:46:21.926Z,8.10
2018-07-23T07:47:21.896Z,8.20
2018-07-23T07:48:21.866Z,8.70
2018-07-23T07:49:21.838Z,7.90
2018-07-23T07:50:21.809Z,7.40
2018-07-23T07:51:21.778Z,8.60
2018-07-23T07:52:21.756Z,8.40
2018-07-23T07:53:21.714Z,8.80
2018-07-23T07:54:21.688Z,8.20
2018-07-23T07:55:21.660Z,8.90
2018-07-23T07:56:21.636Z,8.70
2018-07-23T07:57:21.597Z,8.60
2018-07-23T07:58:21.571Z,8.60
2018-07-23T07:59:21.543Z,8.60
2018-07-23T08:00:21.510Z,8.90
2018-07-23T08:01:21.484Z,9.10
2018-07-23T08:02:21.457Z,9.30
2018-07-23T08:03:21.424Z,8.90
2018-07-23T08:04:21.404Z,9.20
2018-07-23T08:05:21.363Z,10.30
2018-07-23T08:06:21.334Z,9.70
2018-07-23T08:07:21.310Z,9.90
2018-07-23T08:08:21.272Z,9.90
2018-07-23T08:09:21.249Z,10.60
2018-07-23T08:10:21.218Z,10.60
2018-07-23T08:11:21.186Z,10.40
2018-07-23T08:12:21.161Z,10.50
2018-07-23T08:13:21.131Z,11.30
2018-07-23T08:14:21.101Z,9.90
2018-07-23T08:15:21.071Z,10.30
2018-07-23T08:16:21.044Z,10.10
2018-07-23T08:17:21.009Z,9.90
2018-07-23T08:18:20.983Z,9.70
2018-07-23T08:19:20.952Z,10.10
2018-07-23T08:20:20.921Z,10.10
2018-07-23T08:21:20.897Z,9.70
2018-07-23T08:22:20.867Z,10.00
2018-07-23T08:23:20.837Z,10.80
2018-07-23T08:24:20.811Z,9.10
2018-07-23T08:25:20.776Z,10.70
2018-07-23T08:26:20.748Z,10.50
2018-07-23T08:27:20.723Z,9.80
2018-07-23T08:28:20.693Z,9.90
2018-07-23T08:29:20.658Z,10.90
2018-07-23T08:30:20.632Z,10.10
2018-07-23T08:31:20.604Z,10.70
2018-07-23T08:32:20.590Z,10.00
2018-07-23T08:33:20.550Z,10.20
2018-07-23T08:34:20.516Z,9.70
2018-07-23T08:35:20.489Z,9.70
2018-07-23T08:36:20.464Z,10.40
2018-07-23T08:37:20.425Z,9.30
2018-07-23T08:38:20.398Z,9.70
2018-07-23T08:39:20.371Z,9.50
2018-07-23T08:40:20.338Z,9.50
2018-07-23T08:41:20.314Z,9.90
2018-07-23T08:42:20.284Z,10.90
2018-07-23T08:43:20.253Z,10.00
2018-07-23T08:44:20.223Z,9.40
2018-07-23T08:45:20.205Z,9.50
2018-07-23T08:46:20.168Z,10.50
2018-07-23T08:47:20.140Z,10.40
2018-07-23T08:48:20.112Z,10.20
2018-07-23T08:49:20.077Z,9.90
2018-07-23T08:50:20.052Z,9.90
2018-07-23T08:51:20.063Z,10.10
2018-07-23T08:52:19.993Z,9.70
2018-07-23T08:53:19.969Z,10.20
2018-07-23T08:54:19.937Z,10.60
2018-07-23T08:55:19.908Z,10.80
2018-07-23T08:56:19.883Z,10.50
2018-07-23T08:57:19.893Z,9.70
2018-07-23T08:58:19.820Z,9.90
2018-07-23T08:59:19.793Z,10.00
2018-07-23T09:00:19.767Z,10.60
2018-07-23T09:01:19.730Z,10.20
2018-07-23T09:02:19.758Z,10.00
2018-07-23T09:03:19.676Z,10.90
2018-07-23T09:04:19.645Z,9.60
2018-07-23T09:05:19.625Z,9.40
2018-07-23T09:06:19.592Z,9.00
2018-07-23T09:07:19.564Z,9.50
2018-07-23T09:08:19.569Z,10.00
2018-07-23T09:09:19.502Z,9.60
2018-07-23T09:10:19.476Z,8.80
2018-07-23T09:11:19.448Z,8.80
2018-07-23T09:12:19.418Z,7.70
2018-07-23T09:13:19.396Z,6.80
2018-07-23T09:14:19.363Z,7.30
2018-07-23T09:15:19.333Z,6.20
2018-07-23T09:16:19.302Z,7.10
2018-07-23T09:17:19.323Z,6.50
2018-07-23T09:18:19.254Z,6.30
2018-07-23T09:19:19.221Z,5.60
2018-07-23T09:20:19.194Z,5.90
2018-07-23T09:21:19.194Z,6.70
2018-07-23T09:22:19.137Z,6.90
2018-07-23T09:23:19.105Z,6.30
2018-07-23T09:24:19.075Z,6.80
2018-07-23T09:25:19.053Z,6.70
2018-07-23T09:26:19.023Z,6.40
2018-07-23T09:27:18.994Z,6.10
2018-07-23T09:28:18.967Z,6.20
2018-07-23T09:29:18.935Z,6.30
2018-07-23T09:30:18.943Z,5.80
2018-07-23T09:31:18.881Z,6.60
2018-07-23T09:32:18.855Z,6.50
2018-07-23T09:33:18.820Z,6.30
2018-07-23T09:34:18.794Z,6.30
2018-07-23T09:35:18.768Z,6.10
2018-07-23T09:36:18.737Z,5.70
2018-07-23T09:37:18.780Z,5.80
2018-07-23T09:38:18.683Z,6.60
2018-07-23T09:39:18.656Z,6.00
2018-07-23T09:40:18.629Z,6.10
2018-07-23T09:41:18.594Z,6.20
2018-07-23T09:42:18.571Z,6.70
2018-07-23T09:43:18.539Z,6.20
2018-07-23T09:44:18.510Z,5.60
2018-07-23T09:45:18.489Z,5.80
2018-07-23T09:46:18.457Z,5.60
2018-07-23T09:47:18.428Z,6.10
2018-07-23T09:48:18.398Z,5.90
2018-07-23T09:49:18.376Z,5.20
2018-07-23T09:50:18.346Z,5.20
2018-07-23T09:51:18.317Z,5.30
2018-07-23T09:52:18.291Z,5.60
2018-07-23T09:53:18.258Z,5.40
2018-07-23T09:54:18.232Z,5.50
2018-07-23T09:55:18.204Z,6.20
2018-07-23T09:56:18.175Z,6.60
2018-07-23T09:57:18.151Z,6.50
2018-07-23T09:58:18.121Z,6.60
2018-07-23T09:59:18.095Z,5.80
2018-07-23T10:00:18.069Z,5.40
2018-07-23T10:01:18.038Z,6.10
2018-07-23T10:02:18.009Z,6.00
2018-07-23T10:03:18.059Z,5.90
2018-07-23T10:04:17.959Z,6.40
2018-07-23T10:05:17.921Z,6.40
2018-07-23T10:06:17.896Z,6.70
2018-07-23T10:07:17.868Z,6.10
2018-07-23T10:21:16.523Z,6.10
2018-07-23T10:22:16.453Z,6.50
2018-07-23T10:23:16.415Z,7.60
2018-07-23T10:24:16.385Z,6.30
2018-07-23T10:25:16.348Z,6.50
2018-07-23T10:26:16.318Z,6.40
2018-07-23T10:27:16.287Z,5.50
2018-07-23T10:28:16.258Z,5.80
2018-07-23T10:29:16.233Z,5.60
2018-07-23T10:30:16.210Z,5.70
2018-07-23T10:31:16.170Z,5.50
2018-07-23T10:32:16.143Z,5.80
2018-07-23T10:33:16.108Z,5.90
2018-07-23T10:34:16.079Z,4.90
2018-07-23T10:35:16.088Z,5.10
2018-07-23T10:36:16.038Z,5.30
2018-07-23T10:37:15.992Z,6.00
2018-07-23T10:38:15.965Z,6.50
2018-07-23T10:39:15.937Z,5.30
2018-07-23T10:40:15.909Z,4.80
2018-07-23T10:41:15.965Z,5.40
2018-07-23T10:42:15.852Z,4.90
2018-07-23T10:43:15.827Z,5.30
2018-07-23T10:44:15.798Z,4.70
2018-07-23T10:45:15.764Z,5.00
2018-07-23T10:46:15.740Z,4.80
2018-07-23T10:47:15.710Z,5.40
2018-07-23T10:48:15.679Z,4.90
2018-07-23T10:49:15.659Z,5.10
2018-07-23T10:50:15.627Z,5.70
2018-07-23T10:51:15.598Z,5.20
2018-07-23T10:52:15.568Z,5.00
2018-07-23T10:53:15.546Z,4.60
2018-07-23T10:54:15.515Z,4.40
2018-07-23T10:55:15.487Z,4.50
2018-07-23T10:56:15.461Z,4.80
2018-07-23T10:57:15.440Z,5.40
2018-07-23T10:58:15.401Z,5.20
2018-07-23T10:59:15.374Z,5.00
2018-07-23T11:00:15.346Z,4.80
2018-07-23T11:01:15.324Z,5.10
2018-07-23T11:02:15.292Z,5.10
2018-07-23T11:03:15.265Z,4.90
2018-07-23T11:04:15.269Z,5.10
2018-07-23T11:05:15.206Z,5.40
2018-07-23T11:06:15.180Z,5.40
2018-07-23T11:07:15.173Z,5.20
2018-07-23T11:08:15.129Z,5.30
2018-07-23T11:09:15.099Z,5.50
2018-07-23T11:10:15.099Z,5.30
2018-07-23T11:11:15.047Z,5.30
2018-07-23T11:12:15.013Z,4.60
2018-07-23T11:13:14.994Z,5.00
2018-07-23T11:14:14.961Z,4.60
2018-07-23T11:15:14.938Z,4.60
2018-07-23T11:16:14.914Z,4.20
2018-07-23T11:17:14.875Z,3.70
2018-07-23T11:18:14.850Z,3.90
2018-07-23T11:19:14.831Z,3.80
2018-07-23T11:20:14.795Z,4.10
2018-07-23T11:21:14.778Z,4.20
2018-07-23T11:22:14.746Z,4.40
2018-07-23T11:23:14.714Z,4.30
2018-07-23T11:24:14.686Z,4.40
2018-07-23T11:25:38.504Z,4.10
2018-07-23T11:26:14.690Z,4.20
2018-07-23T11:27:14.606Z,4.10
2018-07-23T11:28:14.584Z,4.50
2018-07-23T11:29:14.551Z,4.00
2018-07-23T11:30:14.525Z,4.00
2018-07-23T11:31:14.497Z,3.80
2018-07-23T11:32:14.468Z,4.20
2018-07-23T11:33:14.447Z,4.30
2018-07-23T11:34:14.415Z,3.70
2018-07-23T11:35:14.389Z,3.90
2018-07-23T11:36:14.364Z,4.40
2018-07-23T11:37:14.329Z,4.10
2018-07-23T11:38:14.304Z,4.30
2018-07-23T11:39:14.279Z,4.10
2018-07-23T11:40:14.254Z,4.30
2018-07-23T11:41:14.220Z,4.20
2018-07-23T11:42:14.196Z,4.00
2018-07-23T11:43:14.167Z,4.20
2018-07-23T11:44:14.140Z,4.40
2018-07-23T11:45:14.123Z,4.20
2018-07-23T11:46:24.449Z,4.30
2018-07-23T11:47:14.069Z,4.50
2018-07-23T11:48:14.036Z,4.10
2018-07-23T11:49:14.001Z,3.90
2018-07-23T11:50:13.976Z,4.20
2018-07-23T11:51:13.948Z,4.10
2018-07-23T11:52:14.354Z,4.30
2018-07-23T11:53:13.936Z,4.30
2018-07-23T11:54:13.870Z,4.30
2018-07-23T11:55:13.841Z,4.30
2018-07-23T11:56:13.818Z,4.00
2018-07-23T11:57:13.790Z,4.10
2018-07-23T11:58:13.760Z,4.30
2018-07-23T11:59:13.732Z,4.10
2018-07-23T12:00:13.713Z,4.50
2018-07-23T12:01:13.676Z,4.70
2018-07-23T12:02:13.651Z,4.30
2018-07-23T12:03:13.623Z,4.60
2018-07-23T12:04:13.617Z,4.60
2018-07-23T12:05:13.575Z,4.60
2018-07-23T12:06:13.541Z,4.10
2018-07-23T12:07:13.514Z,4.30
2018-07-23T12:08:13.489Z,4.40
2018-07-23T12:09:13.459Z,4.20
2018-07-23T12:10:13.431Z,4.30
2018-07-23T12:11:13.408Z,4.50
2018-07-23T12:12:13.380Z,4.60
2018-07-23T12:13:13.347Z,3.90
2018-07-23T12:14:13.321Z,4.10
2018-07-23T12:15:13.300Z,4.00
2018-07-23T12:16:13.265Z,4.00
2018-07-23T12:17:13.265Z,4.70
2018-07-23T12:18:13.229Z,4.60
2018-07-23T12:19:13.189Z,4.40
2018-07-23T12:20:13.163Z,4.40
2018-07-23T12:21:13.128Z,4.40
2018-07-23T12:22:13.102Z,4.10
2018-07-23T12:23:13.080Z,4.20
2018-07-23T12:24:13.048Z,4.40
2018-07-23T12:25:13.029Z,4.20
2018-07-23T12:26:12.996Z,4.30
2018-07-23T12:27:12.965Z,4.10
2018-07-23T12:28:12.938Z,4.00
2018-07-23T12:29:12.916Z,3.90
2018-07-23T12:30:12.886Z,4.00
2018-07-23T12:31:12.858Z,3.80
2018-07-23T12:32:12.836Z,3.80
2018-07-23T12:33:12.803Z,4.00
2018-07-23T12:34:12.780Z,3.50
2018-07-23T12:35:12.750Z,3.80
2018-07-23T12:36:12.720Z,3.90
2018-07-23T12:37:12.701Z,4.10
2018-07-23T12:38:12.670Z,4.10
2018-07-23T12:39:12.641Z,3.90
2018-07-23T12:40:12.618Z,3.90
2018-07-23T12:41:12.583Z,4.00
2018-07-23T12:42:12.558Z,4.20
2018-07-23T12:43:12.536Z,3.60
2018-07-23T12:44:12.507Z,3.90
2018-07-23T12:45:12.476Z,3.70
2018-07-23T12:46:12.452Z,3.90
2018-07-23T12:47:12.504Z,4.10
2018-07-23T12:48:12.396Z,3.40
2018-07-23T12:49:12.373Z,3.70
2018-07-23T12:50:12.346Z,3.80
2018-07-23T12:51:12.317Z,4.40
2018-07-23T12:52:12.293Z,4.10
2018-07-23T12:53:12.260Z,4.40
2018-07-23T12:54:12.233Z,4.00
2018-07-23T12:55:12.207Z,4.00
2018-07-23T12:56:12.178Z,3.80
2018-07-23T12:57:12.157Z,3.90
2018-07-23T12:58:12.127Z,3.70
2018-07-23T12:59:12.099Z,4.10
2018-07-23T13:00:12.070Z,4.00
2018-07-23T13:01:12.051Z,4.10
2018-07-23T13:02:12.022Z,4.70
2018-07-23T13:03:11.994Z,4.30
2018-07-23T13:04:11.968Z,4.50
2018-07-23T13:05:11.936Z,4.70
2018-07-23T13:06:11.911Z,4.00
2018-07-23T13:07:11.889Z,3.90
2018-07-23T13:08:11.896Z,4.30
2018-07-23T13:09:11.836Z,4.20
2018-07-23T13:10:11.806Z,4.10
2018-07-23T13:11:11.778Z,4.10
2018-07-23T13:12:11.754Z,4.30
2018-07-23T13:13:11.723Z,4.20
2018-07-23T13:14:11.695Z,4.40
2018-07-23T13:15:11.672Z,4.60
2018-07-23T13:16:11.647Z,4.80
2018-07-23T13:17:11.614Z,4.30
2018-07-23T13:18:11.589Z,4.30
2018-07-23T13:19:11.604Z,4.40
2018-07-23T13:20:11.534Z,4.20
2018-07-23T13:21:11.515Z,4.40
2018-07-23T13:22:11.485Z,4.10
2018-07-23T13:23:11.454Z,4.10
2018-07-23T13:24:11.429Z,4.50
2018-07-23T13:25:11.404Z,4.40
2018-07-23T13:26:11.381Z,4.40
2018-07-23T13:27:11.352Z,4.30
2018-07-23T13:28:11.324Z,4.10
2018-07-23T13:29:11.295Z,4.10
2018-07-23T13:30:11.266Z,4.30
2018-07-23T13:31:11.247Z,4.50
2018-07-23T13:32:11.217Z,4.20
2018-07-23T13:33:11.188Z,4.30
2018-07-23T13:34:11.158Z,4.40
2018-07-23T13:35:11.133Z,3.90
2018-07-23T13:36:11.110Z,3.60
2018-07-23T13:37:11.087Z,3.40
2018-07-23T13:38:11.152Z,3.70
2018-07-23T13:39:11.030Z,3.50
2018-07-23T13:40:11.002Z,3.90